createdAt,value
2023-04-23T00:00:56.175Z,190.8462
2023-04-23T00:01:57.818Z,187.3846
2023-04-23T00:02:59.873Z,185.3846
2023-04-23T00:04:01.474Z,194.6154
2023-04-23T00:05:02.784Z,191.3846
2023-04-23T00:06:04.467Z,186.5385
2023-04-23T00:07:06.013Z,191.6923
2023-04-23T00:08:07.794Z,188.7692
2023-04-23T00:09:09.335Z,189.0000
2023-04-23T00:10:11.007Z,189.7692
2023-04-23T00:11:13.192Z,186.0000
2023-04-23T00:12:14.282Z,184.8462
2023-04-23T00:13:15.909Z,187.8462
2023-04-23T00:14:17.629Z,190.3846
2023-04-23T00:15:19.719Z,188.8462
2023-04-23T00:16:20.887Z,189.9231
2023-04-23T00:17:22.492Z,184.3846
2023-04-23T00:18:24.154Z,189.1538
2023-04-23T00:19:25.828Z,184.7692
2023-04-23T00:20:27.405Z,191.0000
2023-04-23T00:21:29.030Z,193.9231
2023-04-23T00:22:30.737Z,187.8462
2023-04-23T00:23:32.447Z,192.7692
2023-04-23T00:24:34.330Z,187.3846
2023-04-23T00:25:35.590Z,189.1538
2023-04-23T00:26:37.313Z,190.1538
2023-04-23T00:27:38.931Z,187.0000
2023-04-23T00:28:41.340Z,191.3846
2023-04-23T00:29:42.215Z,192.0769
2023-04-23T00:30:43.883Z,192.2308
2023-04-23T00:31:45.485Z,190.5385
2023-04-23T00:32:47.330Z,189.8462
2023-04-23T00:33:48.736Z,191.1538
2023-04-23T00:34:50.770Z,191.6923
2023-04-23T00:35:52.018Z,192.1538
2023-04-23T00:36:53.733Z,191.6923
2023-04-23T00:37:55.290Z,187.7692
2023-04-23T00:38:57.027Z,190.6154
2023-04-23T00:39:58.764Z,190.8462
2023-04-23T00:41:00.353Z,188.0769
2023-04-23T00:42:01.878Z,194.3846
2023-04-23T00:43:03.568Z,197.7692
2023-04-23T00:44:05.325Z,194.0769
2023-04-23T00:45:06.861Z,192.6154
2023-04-23T00:46:09.314Z,196.4615
2023-04-23T00:47:10.072Z,195.5385
2023-04-23T00:48:11.805Z,194.3077
2023-04-23T00:49:14.323Z,196.0000
2023-04-23T00:50:15.163Z,199.4615
2023-04-23T00:51:17.370Z,194.7692
2023-04-23T00:52:18.359Z,196.7692
2023-04-23T00:53:19.982Z,192.5385
2023-04-23T00:54:21.570Z,192.6923
2023-04-23T00:55:23.331Z,191.1538
2023-04-23T00:56:24.960Z,188.2308
2023-04-23T00:57:26.594Z,194.0000
2023-04-23T00:58:28.140Z,193.6923
2023-04-23T00:59:29.817Z,193.2308
2023-04-23T01:00:32.319Z,190.7692
2023-04-23T01:01:33.251Z,191.1538
2023-04-23T01:02:34.812Z,189.6923
2023-04-23T01:03:36.682Z,192.1538
2023-04-23T01:04:38.177Z,192.8462
2023-04-23T01:05:39.853Z,193.6923
2023-04-23T01:06:41.472Z,190.1538
2023-04-23T01:07:43.079Z,190.2308
2023-04-23T01:08:44.727Z,188.3846
2023-04-23T01:09:46.396Z,192.0000
2023-04-23T01:10:48.102Z,192.3846
2023-04-23T01:11:49.755Z,191.5385
2023-04-23T01:12:51.277Z,192.2308
2023-04-23T01:13:52.991Z,190.7692
2023-04-23T01:14:54.538Z,187.6923
2023-04-23T01:15:56.268Z,186.8462
2023-04-23T01:16:58.874Z,185.8462
2023-04-23T01:17:59.593Z,187.3077
2023-04-23T01:19:01.084Z,189.9231
2023-04-23T01:20:02.746Z,185.7692
2023-04-23T01:21:04.467Z,188.8462
2023-04-23T01:22:06.139Z,187.0769
2023-04-23T01:23:07.763Z,189.9231
2023-04-23T01:24:09.367Z,185.6923
2023-04-23T01:25:10.977Z,187.6923
2023-04-23T01:26:13.592Z,190.9231
2023-04-23T01:27:14.341Z,191.4615
2023-04-23T01:28:15.956Z,189.3846
2023-04-23T01:29:17.599Z,191.3077
2023-04-23T01:30:19.232Z,188.8462
2023-04-23T01:31:20.966Z,192.1538
2023-04-23T01:32:22.647Z,204.2308
2023-04-23T01:33:24.118Z,203.3846
2023-04-23T01:34:26.778Z,191.3077
2023-04-23T01:35:27.343Z,187.5385
2023-04-23T01:36:29.359Z,186.0000
2023-04-23T01:37:30.818Z,185.3846
2023-04-23T01:38:33.295Z,190.0769
2023-04-23T01:39:33.996Z,194.5385
2023-04-23T01:40:36.014Z,194.7692
2023-04-23T01:41:37.237Z,192.0000
2023-04-23T01:42:38.944Z,193.1538
2023-04-23T01:43:40.558Z,188.9231
2023-04-23T01:44:42.568Z,188.3077
2023-04-23T01:45:43.914Z,201.0000
2023-04-23T01:46:45.432Z,197.8462
2023-04-23T01:47:47.224Z,187.6154
2023-04-23T01:48:48.762Z,186.3846
2023-04-23T01:49:50.397Z,180.3077
2023-04-23T01:50:52.141Z,188.8462
2023-04-23T01:51:53.672Z,192.0769
2023-04-23T01:52:55.406Z,191.1538
2023-04-23T01:53:56.918Z,193.0000
2023-04-23T01:54:59.038Z,189.5385
2023-04-23T01:56:00.236Z,194.6154
2023-04-23T01:57:01.880Z,189.2308
2023-04-23T01:58:03.505Z,187.9231
2023-04-23T01:59:06.466Z,191.0769
2023-04-23T02:00:06.760Z,199.6923
2023-04-23T02:01:09.492Z,194.0769
2023-04-23T02:02:10.069Z,192.5385
2023-04-23T02:03:11.892Z,185.9231
2023-04-23T02:04:13.380Z,186.3846
2023-04-23T02:05:15.181Z,185.0769
2023-04-23T02:06:16.613Z,185.2308
2023-04-23T02:07:18.286Z,187.7692
2023-04-23T02:08:19.938Z,195.8462
2023-04-23T02:09:22.649Z,193.5385
2023-04-23T02:10:23.163Z,189.6923
2023-04-23T02:11:25.096Z,191.9231
2023-04-23T02:12:26.584Z,192.5385
2023-04-23T02:13:28.514Z,188.3846
2023-04-23T02:14:29.756Z,180.7692
2023-04-23T02:15:31.487Z,181.6923
2023-04-23T02:16:33.136Z,186.2308
2023-04-23T02:17:34.784Z,185.2308
2023-04-23T02:18:36.366Z,191.6923
2023-04-23T02:19:38.083Z,190.7692
2023-04-23T02:20:39.666Z,193.3077
2023-04-23T02:21:41.422Z,193.0000
2023-04-23T02:22:43.882Z,202.3846
2023-04-23T02:23:44.664Z,205.3846
2023-04-23T02:24:46.306Z,201.7692
2023-04-23T02:25:48.004Z,198.8462
2023-04-23T02:26:49.549Z,193.1538
2023-04-23T02:27:51.218Z,188.3846
2023-04-23T02:28:53.010Z,185.5385
2023-04-23T02:29:54.499Z,183.3846
2023-04-23T02:30:56.090Z,184.4615
2023-04-23T02:31:57.930Z,194.6154
2023-04-23T02:32:59.437Z,201.7692
2023-04-23T02:34:01.029Z,196.3077
2023-04-23T02:35:02.645Z,205.8462
2023-04-23T02:36:04.308Z,210.6923
2023-04-23T02:37:06.957Z,198.6154
2023-04-23T02:38:07.521Z,194.3077
2023-04-23T02:39:09.102Z,190.3077
2023-04-23T02:40:10.907Z,181.5385
2023-04-23T02:41:12.928Z,183.6154
2023-04-23T02:42:14.204Z,185.8462
2023-04-23T02:43:15.783Z,179.7692
2023-04-23T02:44:17.426Z,178.1538
2023-04-23T02:45:19.088Z,181.0000
2023-04-23T02:46:20.780Z,189.6154
2023-04-23T02:47:22.447Z,203.3077
2023-04-23T02:48:24.031Z,207.0769
2023-04-23T02:49:25.650Z,209.6923
2023-04-23T02:50:27.305Z,211.5385
2023-04-23T02:51:29.509Z,212.3846
2023-04-23T02:52:30.579Z,212.4615
2023-04-23T02:53:32.217Z,209.8462
2023-04-23T02:54:33.829Z,203.4615
2023-04-23T02:55:35.500Z,190.2308
2023-04-23T02:56:37.144Z,189.8462
2023-04-23T02:57:38.932Z,185.8462
2023-04-23T02:58:40.392Z,184.6923
2023-04-23T02:59:42.118Z,192.3077
2023-04-23T03:00:43.725Z,203.3846
2023-04-23T03:01:45.394Z,205.9231
2023-04-23T03:02:47.126Z,197.6923
2023-04-23T03:03:48.869Z,197.2308
2023-04-23T03:04:50.256Z,209.1538
2023-04-23T03:05:51.926Z,205.0000
2023-04-23T03:06:53.639Z,210.7692
2023-04-23T03:07:55.936Z,200.9231
2023-04-23T03:08:56.812Z,188.1538
2023-04-23T03:09:58.539Z,181.9231
2023-04-23T03:11:00.167Z,185.6154
2023-04-23T03:12:02.486Z,181.1538
2023-04-23T03:13:03.454Z,187.9231
2023-04-23T03:14:05.140Z,200.6154
2023-04-23T03:15:06.706Z,205.0000
2023-04-23T03:16:08.934Z,214.3077
2023-04-23T03:17:10.060Z,204.1538
2023-04-23T03:18:11.716Z,204.8462
2023-04-23T03:19:13.345Z,206.6154
2023-04-23T03:20:15.914Z,197.8462
2023-04-23T03:21:16.557Z,194.6154
2023-04-23T03:22:18.307Z,186.6154
2023-04-23T03:23:19.926Z,187.1538
2023-04-23T03:24:21.559Z,183.8462
2023-04-23T03:25:23.117Z,188.5385
2023-04-23T03:26:24.828Z,194.0769
2023-04-23T03:27:26.481Z,193.3077
2023-04-23T03:28:28.162Z,204.3846
2023-04-23T03:29:29.707Z,206.4615
2023-04-23T03:30:31.381Z,208.3077
2023-04-23T03:31:32.975Z,207.5385
2023-04-23T03:32:34.714Z,204.3077
2023-04-23T03:33:36.341Z,191.6154
2023-04-23T03:34:37.952Z,186.5385
2023-04-23T03:35:39.594Z,185.0000
2023-04-23T03:36:41.204Z,185.1538
2023-04-23T03:37:42.907Z,182.5385
2023-04-23T03:38:44.596Z,178.0769
2023-04-23T03:39:46.147Z,191.6923
2023-04-23T03:40:47.843Z,202.1538
2023-04-23T03:41:49.418Z,194.9231
2023-04-23T03:42:51.169Z,196.5385
2023-04-23T03:43:53.430Z,198.5385
2023-04-23T03:44:54.371Z,196.4615
2023-04-23T03:45:56.104Z,188.9231
2023-04-23T03:46:58.402Z,188.1538
2023-04-23T03:47:59.428Z,186.6154
2023-04-23T03:49:01.454Z,182.2308
2023-04-23T03:50:02.604Z,179.0769
2023-04-23T03:51:04.229Z,177.6154
2023-04-23T03:52:05.908Z,182.1538
2023-04-23T03:53:07.596Z,195.6923
2023-04-23T03:54:09.128Z,207.8462
2023-04-23T03:55:10.787Z,212.4615
2023-04-23T03:56:12.397Z,214.5385
2023-04-23T03:57:14.016Z,215.3846
2023-04-23T03:58:15.700Z,214.1538
2023-04-23T03:59:17.333Z,218.2308
2023-04-23T04:00:19.032Z,229.8462
2023-04-23T04:01:20.594Z,232.0000
2023-04-23T04:02:22.408Z,234.3077
2023-04-23T04:03:25.185Z,226.5385
2023-04-23T04:04:25.832Z,224.7692
2023-04-23T04:05:27.309Z,228.6154
2023-04-23T04:06:28.914Z,236.6154
2023-04-23T04:07:30.464Z,239.6154
2023-04-23T04:08:32.133Z,241.3077
2023-04-23T04:09:33.764Z,240.8462
2023-04-23T04:10:35.932Z,242.0000
2023-04-23T04:11:37.410Z,245.9231
2023-04-23T04:12:38.739Z,250.1538
2023-04-23T04:13:40.370Z,246.4615
2023-04-23T04:14:42.301Z,249.1538
2023-04-23T04:15:44.459Z,252.8462
2023-04-23T04:16:45.368Z,254.9231
2023-04-23T04:17:47.017Z,252.4615
2023-04-23T04:18:48.724Z,265.9231
2023-04-23T04:19:50.606Z,261.8462
2023-04-23T04:20:52.031Z,262.3077
2023-04-23T04:21:53.630Z,272.0769
2023-04-23T04:22:55.295Z,268.6154
2023-04-23T04:23:57.980Z,270.2308
2023-04-23T04:24:58.454Z,278.2308
2023-04-23T04:26:00.203Z,282.4615
2023-04-23T04:27:01.869Z,277.5385
2023-04-23T04:28:03.554Z,282.6923
2023-04-23T04:29:05.126Z,283.0769
2023-04-23T04:30:06.880Z,287.5385
2023-04-23T04:31:08.505Z,287.8462
2023-04-23T04:32:10.098Z,289.3846
2023-04-23T04:33:11.770Z,289.3846
2023-04-23T04:34:13.449Z,293.5385
2023-04-23T04:35:14.968Z,299.4615
2023-04-23T04:36:16.703Z,300.0000
2023-04-23T04:37:18.279Z,299.6154
2023-04-23T04:38:19.960Z,301.5385
2023-04-23T04:39:21.583Z,305.8462
2023-04-23T04:40:23.278Z,308.4615
2023-04-23T04:41:24.920Z,306.7692
2023-04-23T04:42:26.534Z,315.5385
2023-04-23T04:43:28.227Z,308.0000
2023-04-23T04:44:29.796Z,312.8462
2023-04-23T04:45:31.509Z,320.0000
2023-04-23T04:46:33.131Z,316.4615
2023-04-23T04:47:34.776Z,317.6923
2023-04-23T04:48:37.377Z,320.6154
2023-04-23T04:49:38.089Z,322.0000
2023-04-23T04:50:39.680Z,319.1538
2023-04-23T04:51:41.293Z,326.5385
2023-04-23T04:52:42.983Z,326.3077
2023-04-23T04:53:44.589Z,333.7692
2023-04-23T04:54:46.226Z,329.2308
2023-04-23T04:55:47.907Z,332.6154
2023-04-23T04:56:49.627Z,335.3846
2023-04-23T04:57:52.200Z,339.3846
2023-04-23T04:58:53.776Z,339.4615
2023-04-23T04:59:55.350Z,331.8462
2023-04-23T05:00:56.098Z,344.4615
2023-04-23T05:01:57.793Z,346.6154
2023-04-23T05:02:59.535Z,347.1538
2023-04-23T05:04:01.109Z,348.3846
2023-04-23T05:05:02.619Z,347.0769
2023-04-23T05:06:04.302Z,345.2308
2023-04-23T05:07:05.925Z,344.0000
2023-04-23T05:08:07.574Z,351.0769
2023-04-23T05:09:09.173Z,346.5385
2023-04-23T05:10:10.931Z,350.3077
2023-04-23T05:11:12.498Z,353.3846
2023-04-23T05:12:14.238Z,355.7692
2023-04-23T05:13:15.855Z,352.3077
2023-04-23T05:14:17.459Z,351.2308
2023-04-23T05:15:19.108Z,359.6154
2023-04-23T05:16:20.871Z,358.3077
2023-04-23T05:17:23.075Z,357.5385
2023-04-23T05:18:24.120Z,362.8462
2023-04-23T05:19:25.647Z,363.0769
2023-04-23T05:20:27.352Z,357.9231
2023-04-23T05:21:29.022Z,360.3077
2023-04-23T05:22:30.670Z,361.5385
2023-04-23T05:23:32.213Z,357.3846
2023-04-23T05:24:33.948Z,359.0000
2023-04-23T05:25:35.580Z,361.4615
2023-04-23T05:26:37.267Z,365.8462
2023-04-23T05:27:38.893Z,359.9231
2023-04-23T05:28:40.517Z,371.0000
2023-04-23T05:29:42.118Z,366.7692
2023-04-23T05:30:43.804Z,373.0769
2023-04-23T05:31:45.498Z,373.1538
2023-04-23T05:32:47.198Z,372.3077
2023-04-23T05:33:50.504Z,373.2308
2023-04-23T05:34:50.372Z,374.2308
2023-04-23T05:35:52.019Z,372.6923
2023-04-23T05:36:53.772Z,380.3077
2023-04-23T05:37:55.373Z,374.0000
2023-04-23T05:38:56.996Z,378.7692
2023-04-23T05:39:58.577Z,387.2308
2023-04-23T05:41:00.291Z,384.4615
2023-04-23T05:42:02.405Z,383.3846
2023-04-23T05:43:03.579Z,386.6923
2023-04-23T05:44:05.185Z,384.7692
2023-04-23T05:45:08.864Z,381.6154
2023-04-23T05:46:08.512Z,388.2308
2023-04-23T05:47:10.203Z,388.5385
2023-04-23T05:48:11.843Z,385.8462
2023-04-23T05:49:13.468Z,391.1538
2023-04-23T05:50:15.092Z,389.9231
2023-04-23T05:51:16.788Z,391.0000
2023-04-23T05:52:18.434Z,394.0769
2023-04-23T05:53:20.162Z,395.6154
2023-04-23T05:54:21.653Z,397.8462
2023-04-23T05:55:23.338Z,400.3077
2023-04-23T05:56:25.058Z,404.0769
2023-04-23T05:57:27.525Z,401.0000
2023-04-23T05:58:28.346Z,404.4615
2023-04-23T05:59:29.978Z,407.2308
2023-04-23T06:00:31.630Z,407.1538
2023-04-23T06:01:33.205Z,405.9231
2023-04-23T06:02:35.042Z,408.9231
2023-04-23T06:03:36.793Z,411.9231
2023-04-23T06:04:38.361Z,410.3077
2023-04-23T06:05:39.835Z,414.6154
2023-04-23T06:06:41.484Z,418.2308
2023-04-23T06:07:43.180Z,411.8462
2023-04-23T06:08:45.063Z,417.4615
2023-04-23T06:09:46.401Z,416.6154
2023-04-23T06:10:48.108Z,417.5385
2023-04-23T06:11:49.683Z,419.0000
2023-04-23T06:12:51.592Z,421.8462
2023-04-23T06:13:53.060Z,424.2308
2023-04-23T06:14:54.689Z,424.0000
2023-04-23T06:15:56.319Z,425.8462
2023-04-23T06:16:57.981Z,420.9231
2023-04-23T06:17:59.666Z,422.8462
2023-04-23T06:19:01.588Z,422.1538
2023-04-23T06:20:02.904Z,423.5385
2023-04-23T06:21:04.566Z,430.3846
2023-04-23T06:22:06.164Z,428.0769
2023-04-23T06:23:07.866Z,425.3846
2023-04-23T06:24:09.504Z,425.2308
2023-04-23T06:25:11.180Z,429.3846
2023-04-23T06:26:12.722Z,431.2308
2023-04-23T06:27:14.421Z,429.7692
2023-04-23T06:28:16.163Z,433.3077
2023-04-23T06:29:17.758Z,438.3077
2023-04-23T06:30:19.374Z,439.8462
2023-04-23T06:31:21.061Z,440.5385
2023-04-23T06:32:22.630Z,442.1538
2023-04-23T06:33:24.284Z,447.0769
2023-04-23T06:34:26.131Z,443.5385
2023-04-23T06:35:27.635Z,446.2308
2023-04-23T06:36:29.166Z,446.3846
2023-04-23T06:37:31.029Z,446.2308
2023-04-23T06:38:32.428Z,449.7692
2023-04-23T06:39:34.183Z,452.0769
2023-04-23T06:40:35.718Z,452.0769
2023-04-23T06:41:37.337Z,453.3077
2023-04-23T06:42:40.096Z,457.2308
2023-04-23T06:43:40.887Z,455.5385
2023-04-23T06:44:42.675Z,458.7692
2023-04-23T06:45:44.232Z,456.2308
2023-04-23T06:46:45.826Z,460.0769
2023-04-23T06:47:48.212Z,461.9231
2023-04-23T06:48:48.999Z,463.9231
2023-04-23T06:49:50.736Z,465.7692
2023-04-23T06:50:52.379Z,468.3846
2023-04-23T06:51:56.975Z,467.0000
2023-04-23T06:52:55.476Z,470.6154
2023-04-23T06:53:57.193Z,469.6923
2023-04-23T06:54:59.862Z,479.1538
2023-04-23T06:56:00.461Z,480.4615
2023-04-23T06:57:02.179Z,479.3846
2023-04-23T06:58:03.753Z,483.9231
2023-04-23T06:59:05.356Z,434.9231
2023-04-23T07:00:07.109Z,352.5385
2023-04-23T07:01:08.701Z,320.8462
2023-04-23T07:02:10.369Z,385.3846
2023-04-23T07:03:11.997Z,399.3077
2023-04-23T07:04:13.669Z,405.3846
2023-04-23T07:05:15.272Z,422.6923
2023-04-23T07:06:18.603Z,423.5385
2023-04-23T07:07:18.508Z,428.3077
2023-04-23T07:08:20.205Z,435.6154
2023-04-23T07:09:21.818Z,437.0000
2023-04-23T07:10:23.560Z,444.2308
2023-04-23T07:11:25.142Z,454.6154
2023-04-23T07:12:26.830Z,460.8462
2023-04-23T07:13:28.442Z,414.3846
2023-04-23T07:14:30.087Z,331.9231
2023-04-23T07:15:31.845Z,328.6923
2023-04-23T07:16:33.480Z,379.0000
2023-04-23T07:17:34.992Z,399.3077
2023-04-23T07:18:36.657Z,407.2308
2023-04-23T07:19:38.288Z,414.3077
2023-04-23T07:20:39.989Z,419.3846
2023-04-23T07:21:41.578Z,428.9231
2023-04-23T07:22:43.232Z,432.0769
2023-04-23T07:23:44.865Z,436.0000
2023-04-23T07:24:46.522Z,440.3846
2023-04-23T07:25:48.183Z,442.6154
2023-04-23T07:26:49.858Z,364.3077
2023-04-23T07:27:51.401Z,329.2308
2023-04-23T07:28:53.183Z,358.3846
2023-04-23T07:29:54.704Z,393.0769
2023-04-23T07:30:56.454Z,394.3077
2023-04-23T07:31:58.077Z,396.3077
2023-04-23T07:32:59.718Z,413.0000
2023-04-23T07:34:01.392Z,421.1538
2023-04-23T07:35:02.975Z,434.2308
2023-04-23T07:36:04.598Z,450.7692
2023-04-23T07:37:06.316Z,396.5385
2023-04-23T07:38:07.860Z,338.0000
2023-04-23T07:39:09.545Z,318.1538
2023-04-23T07:40:11.189Z,374.0000
2023-04-23T07:41:12.914Z,374.3846
2023-04-23T07:42:15.068Z,387.5385
2023-04-23T07:43:16.142Z,406.3077
2023-04-23T07:44:17.761Z,406.6154
2023-04-23T07:45:19.500Z,406.0000
2023-04-23T07:46:21.146Z,409.0769
2023-04-23T07:47:23.002Z,418.8462
2023-04-23T07:48:24.413Z,413.8462
2023-04-23T07:49:26.021Z,349.0000
2023-04-23T07:50:27.637Z,320.7692
2023-04-23T07:51:29.351Z,371.9231
2023-04-23T07:52:30.957Z,381.7692
2023-04-23T07:53:32.577Z,403.3077
2023-04-23T07:54:34.207Z,396.3077
2023-04-23T07:55:35.917Z,404.7692
2023-04-23T07:56:37.597Z,403.2308
2023-04-23T07:57:39.241Z,404.6154
2023-04-23T07:58:40.815Z,404.3846
2023-04-23T07:59:42.863Z,411.2308
2023-04-23T08:00:44.088Z,423.8462
2023-04-23T08:01:45.820Z,421.0000
2023-04-23T08:02:47.614Z,414.2308
2023-04-23T08:03:49.440Z,422.1538
2023-04-23T08:04:50.827Z,420.4615
2023-04-23T08:05:52.336Z,425.8462
2023-04-23T08:06:54.045Z,427.3077
2023-04-23T08:07:55.645Z,428.6154
2023-04-23T08:08:57.308Z,422.6923
2023-04-23T08:09:58.900Z,435.2308
2023-04-23T08:11:00.547Z,438.7692
2023-04-23T08:12:02.236Z,427.7692
2023-04-23T08:13:03.902Z,438.2308
2023-04-23T08:14:05.496Z,445.6154
2023-04-23T08:15:07.220Z,441.0000
2023-04-23T08:16:08.790Z,439.7692
2023-04-23T08:17:10.463Z,453.0000
2023-04-23T08:18:12.107Z,442.4615
2023-04-23T08:19:13.706Z,451.8462
2023-04-23T08:20:15.302Z,449.6923
2023-04-23T08:21:17.031Z,450.1538
2023-04-23T08:22:20.293Z,448.6154
2023-04-23T08:23:20.353Z,450.0000
2023-04-23T08:24:22.456Z,451.4615
2023-04-23T08:25:23.603Z,456.3077
2023-04-23T08:26:25.214Z,453.9231
2023-04-23T08:27:26.971Z,452.4615
2023-04-23T08:28:28.593Z,445.9231
2023-04-23T08:29:30.208Z,452.7692
2023-04-23T08:30:31.789Z,461.3846
2023-04-23T08:31:33.509Z,450.7692
2023-04-23T08:32:35.158Z,460.3077
2023-04-23T08:33:36.875Z,462.7692
2023-04-23T08:34:38.442Z,461.0769
2023-04-23T08:35:40.078Z,464.3846
2023-04-23T08:36:41.649Z,465.8462
2023-04-23T08:37:43.444Z,469.2308
2023-04-23T08:38:44.989Z,468.7692
2023-04-23T08:39:46.686Z,468.3077
2023-04-23T08:40:48.227Z,470.8462
2023-04-23T08:41:49.926Z,465.3846
2023-04-23T08:42:51.644Z,466.1538
2023-04-23T08:43:53.238Z,474.3846
2023-04-23T08:44:54.801Z,479.3846
2023-04-23T08:45:56.510Z,476.0000
2023-04-23T08:46:58.248Z,465.2308
2023-04-23T08:48:02.134Z,468.7692
2023-04-23T08:49:01.452Z,460.6154
2023-04-23T08:50:03.074Z,473.3846
2023-04-23T08:51:04.690Z,472.0769
2023-04-23T08:52:06.380Z,446.3846
2023-04-23T08:53:08.065Z,346.4615
2023-04-23T08:54:09.679Z,311.3846
2023-04-23T08:55:11.255Z,290.3077
2023-04-23T08:56:12.940Z,254.6923
2023-04-23T08:57:14.574Z,255.9231
2023-04-23T08:58:16.279Z,296.6923
2023-04-23T08:59:17.911Z,287.3846
2023-04-23T09:00:19.455Z,288.6154
2023-04-23T09:01:21.297Z,309.0769
2023-04-23T09:02:22.986Z,331.9231
2023-04-23T09:03:24.547Z,371.4615
2023-04-23T09:04:26.164Z,376.9231
2023-04-23T09:05:27.710Z,355.1538
2023-04-23T09:06:29.422Z,363.7692
2023-04-23T09:07:31.023Z,391.5385
2023-04-23T09:08:32.753Z,400.1538
2023-04-23T09:09:34.641Z,399.5385
2023-04-23T09:10:35.974Z,420.5385
2023-04-23T09:11:37.577Z,425.1538
2023-04-23T09:12:39.276Z,434.6154
2023-04-23T09:13:40.950Z,420.0000
2023-04-23T09:14:42.852Z,435.2308
2023-04-23T09:15:44.169Z,430.6923
2023-04-23T09:16:45.922Z,447.0769
2023-04-23T09:17:47.529Z,437.8462
2023-04-23T09:18:49.194Z,433.9231
2023-04-23T09:19:50.858Z,434.4615
2023-04-23T09:20:52.528Z,442.3077
2023-04-23T09:21:54.046Z,452.1538
2023-04-23T09:22:55.727Z,438.9231
2023-04-23T09:23:57.449Z,435.6923
2023-04-23T09:24:59.090Z,433.3077
2023-04-23T09:26:00.627Z,437.0769
2023-04-23T09:27:02.267Z,443.9231
2023-04-23T09:28:03.958Z,436.6923
2023-04-23T09:29:05.609Z,442.3077
2023-04-23T09:30:07.294Z,441.3077
2023-04-23T09:31:08.879Z,441.4615
2023-04-23T09:32:10.586Z,438.0000
2023-04-23T09:33:12.151Z,443.3846
2023-04-23T09:34:14.206Z,454.5385
2023-04-23T09:35:15.554Z,446.7692
2023-04-23T09:36:17.233Z,449.6154
2023-04-23T09:37:18.783Z,450.6154
2023-04-23T09:38:20.428Z,452.3077
2023-04-23T09:39:22.065Z,449.1538
2023-04-23T09:40:23.749Z,458.2308
2023-04-23T09:41:25.304Z,463.7692
2023-04-23T09:42:26.986Z,472.3077
2023-04-23T09:43:28.575Z,471.3077
2023-04-23T09:44:30.353Z,470.6923
2023-04-23T09:45:31.945Z,477.1538
2023-04-23T09:46:33.562Z,473.4615
2023-04-23T09:47:35.252Z,477.6154
2023-04-23T09:48:36.879Z,487.4615
2023-04-23T09:49:38.534Z,479.8462
2023-04-23T09:50:40.245Z,491.3846
2023-04-23T09:51:41.769Z,490.3846
2023-04-23T09:52:43.431Z,493.0769
2023-04-23T09:53:45.056Z,458.3077
2023-04-23T09:54:47.214Z,369.3077
2023-04-23T09:55:48.397Z,327.5385
2023-04-23T09:56:50.076Z,351.3846
2023-04-23T09:57:51.611Z,387.3846
2023-04-23T09:58:53.366Z,390.8462
2023-04-23T10:00:03.754Z,387.2308
2023-04-23T10:00:56.638Z,397.4615
2023-04-23T10:01:58.289Z,404.7692
2023-04-23T10:03:00.168Z,424.6154
2023-04-23T10:04:01.694Z,430.0769
2023-04-23T10:05:21.468Z,446.1538
2023-04-23T10:06:05.264Z,439.9231
2023-04-23T10:07:17.923Z,459.8462
2023-04-23T10:08:08.232Z,471.6923
2023-04-23T10:09:09.704Z,465.5385
2023-04-23T10:10:11.463Z,478.9231
2023-04-23T10:11:20.734Z,478.1538
2023-04-23T10:13:16.302Z,468.4615
2023-04-23T10:14:17.962Z,477.0000
2023-04-23T10:15:19.684Z,484.1538
2023-04-23T10:16:23.284Z,487.7692
2023-04-23T10:17:22.932Z,488.6154
2023-04-23T10:18:24.492Z,471.6154
2023-04-23T10:19:27.171Z,413.6154
2023-04-23T10:20:27.878Z,460.1538
2023-04-23T10:21:36.620Z,458.3846
2023-04-23T10:22:31.067Z,453.0769
2023-04-23T10:23:32.802Z,440.6154
2023-04-23T10:24:34.371Z,414.8462
2023-04-23T10:25:36.729Z,426.0000
2023-04-23T10:26:38.190Z,435.6923
2023-04-23T10:27:51.118Z,457.6154
2023-04-23T10:28:41.042Z,452.1538
2023-04-23T10:29:43.017Z,438.7692
2023-04-23T10:30:44.681Z,462.0000
2023-04-23T10:31:45.980Z,433.6154
2023-04-23T10:32:47.561Z,367.0000
2023-04-23T10:33:58.204Z,398.5385
2023-04-23T10:34:50.931Z,431.5385
2023-04-23T10:35:52.601Z,447.3077
2023-04-23T10:36:54.181Z,430.5385
2023-04-23T10:37:55.844Z,347.6154
2023-04-23T10:38:59.106Z,350.3077
2023-04-23T10:39:59.132Z,386.9231
2023-04-23T10:41:00.801Z,417.1538
2023-04-23T10:42:02.466Z,437.3077
2023-04-23T10:43:04.026Z,452.7692
2023-04-23T10:44:05.723Z,431.6154
2023-04-23T10:45:16.613Z,402.8462
2023-04-23T10:46:09.139Z,399.3846
2023-04-23T10:47:10.738Z,421.1538
2023-04-23T10:48:12.460Z,418.3077
2023-04-23T10:49:14.016Z,407.0000
2023-04-23T10:50:15.744Z,411.6923
2023-04-23T10:51:56.084Z,434.2308
2023-04-23T10:52:21.495Z,440.7692
2023-04-23T10:53:20.604Z,460.3077
2023-04-23T10:54:22.319Z,417.4615
2023-04-23T10:55:23.969Z,400.5385
2023-04-23T10:56:25.789Z,407.0769
2023-04-23T10:57:27.271Z,391.8462
2023-04-23T10:58:28.943Z,386.0769
2023-04-23T10:59:30.465Z,377.8462
2023-04-23T11:00:32.164Z,359.9231
2023-04-23T11:01:33.827Z,361.5385
2023-04-23T11:02:35.607Z,418.3846
2023-04-23T11:03:39.646Z,427.7692
2023-04-23T11:04:38.834Z,415.3846
2023-04-23T11:05:40.389Z,384.0000
2023-04-23T11:06:42.089Z,397.0769
2023-04-23T11:07:43.750Z,406.6154
2023-04-23T11:08:45.426Z,439.3846
2023-04-23T11:09:47.013Z,442.9231
2023-04-23T11:10:48.667Z,443.5385
2023-04-23T11:11:50.288Z,425.9231
2023-04-23T11:12:52.027Z,361.7692
2023-04-23T11:13:53.621Z,381.6923
2023-04-23T11:14:55.307Z,406.6923
2023-04-23T11:15:56.907Z,401.7692
2023-04-23T11:16:58.530Z,425.4615
2023-04-23T11:18:00.216Z,438.3846
2023-04-23T11:19:01.911Z,393.9231
2023-04-23T11:20:03.558Z,293.2308
2023-04-23T11:21:05.187Z,282.6154
2023-04-23T11:22:06.767Z,278.3077
2023-04-23T11:23:08.462Z,281.0769
2023-04-23T11:24:10.097Z,237.6923
2023-04-23T11:25:11.842Z,268.0000
2023-04-23T11:26:13.424Z,301.5385
2023-04-23T11:27:15.044Z,281.8462
2023-04-23T11:28:16.694Z,228.0000
2023-04-23T11:29:18.339Z,283.0000
2023-04-23T11:30:19.962Z,343.6923
2023-04-23T11:31:21.656Z,307.0769
2023-04-23T11:32:23.298Z,296.8462
2023-04-23T11:33:24.927Z,343.8462
2023-04-23T11:34:26.604Z,357.9231
2023-04-23T11:35:28.167Z,314.1538
2023-04-23T11:36:30.699Z,309.0000
2023-04-23T11:37:31.480Z,318.2308
2023-04-23T11:38:33.056Z,290.3077
2023-04-23T11:39:34.733Z,294.2308
2023-04-23T11:40:36.643Z,270.7692
2023-04-23T11:41:38.087Z,240.0000
2023-04-23T11:42:39.664Z,241.5385
2023-04-23T11:43:42.212Z,255.0000
2023-04-23T11:44:42.972Z,335.8462
2023-04-23T11:45:44.701Z,392.4615
2023-04-23T11:46:46.272Z,338.6154
2023-04-23T11:47:47.962Z,392.9231
2023-04-23T11:48:49.562Z,375.6154
2023-04-23T11:49:51.271Z,324.5385
2023-04-23T11:50:53.130Z,329.1538
2023-04-23T11:51:54.611Z,296.6923
2023-04-23T11:52:56.201Z,286.7692
2023-04-23T11:53:57.906Z,319.2308
2023-04-23T11:54:59.467Z,304.1538
2023-04-23T11:56:01.219Z,262.5385
2023-04-23T11:57:02.788Z,265.9231
2023-04-23T11:58:04.472Z,313.3846
2023-04-23T11:59:06.069Z,337.2308
2023-04-23T12:00:07.763Z,309.0769
2023-04-23T12:01:09.448Z,306.8462
2023-04-23T12:02:11.100Z,297.4615
2023-04-23T12:03:12.936Z,275.4615
2023-04-23T12:04:14.662Z,228.0000
2023-04-23T12:05:16.154Z,207.9231